Time;durP1;ratioP1;P1;durP2;ratioP2;P2;SDS_P1;SDS_P2;PMS_P1;PMS_P2;Temp;Humidity;BMP_temperature;BMP_pressure;BME280_temperature;BME280_humidity;BME280_pressure;Samples;Min_cycle;Max_cycle;Signal;HPM_P1;HPM_P2
2021/10/16 00:00:16;;;;;;;7.63;4.88;;;11.80;99.20;;;;;;5018524;28;20022;-81
2021/10/16 00:02:42;;;;;;;8.70;4.72;;;11.80;99.20;;;;;;5040793;28;20146;-80
2021/10/16 00:05:08;;;;;;;6.63;4.75;;;11.90;99.30;;;;;;5033757;28;20057;-80
2021/10/16 00:07:34;;;;;;;7.97;5.22;;;11.80;99.30;;;;;;5026591;28;20021;-80
2021/10/16 00:10:00;;;;;;;7.00;4.35;;;11.90;99.30;;;;;;5052715;28;20036;-81
2021/10/16 00:12:27;;;;;;;7.97;4.53;;;11.80;99.30;;;;;;5016571;28;20098;-80
2021/10/16 00:14:53;;;;;;;7.22;4.43;;;11.80;99.50;;;;;;5015596;28;20507;-80
2021/10/16 00:17:19;;;;;;;9.95;4.38;;;11.80;99.60;;;;;;5017806;28;20478;-80
2021/10/16 00:19:45;;;;;;;6.68;4.55;;;11.80;99.60;;;;;;5036546;28;20022;-80
2021/10/16 00:22:11;;;;;;;10.55;4.75;;;11.90;99.50;;;;;;5034721;28;20029;-81
2021/10/16 00:24:37;;;;;;;7.72;4.78;;;11.90;99.50;;;;;;5020674;28;20565;-82
2021/10/16 00:27:03;;;;;;;7.40;4.05;;;11.90;99.50;;;;;;5036907;28;20033;-80
2021/10/16 00:29:29;;;;;;;8.68;4.40;;;11.80;99.60;;;;;;5048972;28;20054;-81
2021/10/16 00:31:55;;;;;;;7.88;4.88;;;11.80;99.80;;;;;;5017297;28;20533;-81
2021/10/16 00:34:21;;;;;;;7.22;4.78;;;11.80;99.70;;;;;;5016945;28;20030;-80
2021/10/16 00:36:46;;;;;;;7.57;4.35;;;11.80;99.80;;;;;;5018014;28;20095;-81
2021/10/16 00:39:12;;;;;;;7.13;4.82;;;11.80;99.80;;;;;;5016649;28;20026;-82
2021/10/16 00:41:37;;;;;;;9.25;4.93;;;11.70;99.80;;;;;;5031761;28;20033;-82
2021/10/16 00:44:18;;;;;;;8.65;5.45;;;11.80;99.90;;;;;;5034794;28;20033;-81
2021/10/16 00:46:45;;;;;;;8.65;5.18;;;11.70;99.90;;;;;;5027261;28;20033;-82
2021/10/16 00:49:11;;;;;;;7.35;4.53;;;11.70;99.90;;;;;;5041643;28;20021;-80
2021/10/16 00:51:37;;;;;;;9.00;4.80;;;11.70;99.90;;;;;;5031479;28;20021;-81
2021/10/16 00:54:07;;;;;;;7.38;4.32;;;11.70;99.90;;;;;;5036032;28;20125;-82
2021/10/16 00:56:34;;;;;;;7.75;5.32;;;11.70;99.90;;;;;;5015076;28;20088;-81
2021/10/16 00:58:59;;;;;;;10.27;5.53;;;11.70;99.90;;;;;;5015604;28;20033;-82
2021/10/16 01:01:26;;;;;;;8.38;5.00;;;11.70;99.90;;;;;;5016532;28;20471;-82
2021/10/16 01:03:51;;;;;;;7.95;5.20;;;11.70;99.90;;;;;;5029690;28;20218;-81
2021/10/16 01:06:17;;;;;;;8.88;5.50;;;11.70;99.90;;;;;;5035829;28;20547;-83
2021/10/16 01:08:43;;;;;;;8.27;5.30;;;11.80;99.90;;;;;;5015555;28;20030;-82
2021/10/16 01:11:08;;;;;;;9.13;5.60;;;11.80;99.90;;;;;;5015683;28;20026;-82
2021/10/16 01:13:34;;;;;;;11.15;6.22;;;11.80;99.90;;;;;;5016122;28;20038;-81
2021/10/16 01:16:00;;;;;;;9.35;6.03;;;11.80;99.90;;;;;;5015238;28;20049;-82
2021/10/16 01:18:26;;;;;;;10.57;5.90;;;11.70;99.90;;;;;;5025598;28;20036;-82
2021/10/16 01:21:04;;;;;;;10.40;5.93;;;11.60;99.90;;;;;;5049163;28;20029;-83
2021/10/16 01:23:33;;;;;;;10.65;6.47;;;11.60;99.90;;;;;;5029361;28;20026;-83
2021/10/16 01:26:00;;;;;;;11.85;6.28;;;11.60;99.90;;;;;;5039514;28;20478;-82
2021/10/16 01:28:27;;;;;;;9.60;5.95;;;11.60;99.90;;;;;;5014811;28;20068;-83
2021/10/16 01:30:53;;;;;;;10.90;6.78;;;11.60;99.90;;;;;;5015585;28;20208;-82
2021/10/16 01:33:19;;;;;;;11.00;6.05;;;11.60;99.90;;;;;;5024390;28;20053;-83
2021/10/16 01:35:58;;;;;;;10.02;6.10;;;11.60;99.90;;;;;;5040635;28;20091;-82
2021/10/16 01:38:23;;;;;;;12.07;6.57;;;11.60;99.90;;;;;;5026135;28;20117;-82
2021/10/16 01:40:49;;;;;;;11.48;6.25;;;11.70;99.90;;;;;;5049796;28;20466;-82
2021/10/16 01:43:15;;;;;;;10.82;6.30;;;11.60;99.90;;;;;;5042907;28;20375;-81
2021/10/16 01:45:40;;;;;;;9.43;6.45;;;11.60;99.90;;;;;;5015185;28;20471;-80
2021/10/16 01:48:06;;;;;;;12.57;7.20;;;11.60;99.90;;;;;;5013971;28;20120;-81
2021/10/16 01:50:42;;;;;;;14.00;7.45;;;11.60;99.90;;;;;;5015944;28;20030;-81
2021/10/16 01:53:11;;;;;;;13.82;6.82;;;11.50;99.90;;;;;;5030099;28;20017;-81
2021/10/16 01:55:37;;;;;;;9.70;6.75;;;11.50;99.90;;;;;;5034194;28;20053;-80
2021/10/16 01:58:14;;;;;;;13.48;7.60;;;11.50;99.90;;;;;;5042455;28;20022;-82
2021/10/16 02:00:44;;;;;;;12.93;7.32;;;11.50;99.90;;;;;;5015092;28;20073;-81
2021/10/16 02:03:11;;;;;;;11.40;6.55;;;11.50;99.90;;;;;;5015245;28;20026;-81
2021/10/16 02:05:44;;;;;;;11.18;7.10;;;11.50;99.90;;;;;;5013978;28;20033;-81
2021/10/16 02:08:11;;;;;;;11.75;6.82;;;11.50;99.90;;;;;;5022552;28;20017;-81
2021/10/16 02:10:37;;;;;;;12.75;7.18;;;11.50;99.90;;;;;;5046099;28;20022;-81
2021/10/16 02:13:03;;;;;;;12.05;7.32;;;11.50;99.90;;;;;;5013883;28;20141;-81
2021/10/16 02:15:28;;;;;;;13.18;8.10;;;11.50;99.90;;;;;;5014234;28;20041;-81
2021/10/16 02:17:54;;;;;;;13.10;7.65;;;11.40;99.90;;;;;;5013948;28;20149;-80
2021/10/16 02:20:20;;;;;;;10.80;7.25;;;11.50;99.90;;;;;;5023793;28;20053;-80
2021/10/16 02:22:45;;;;;;;12.88;7.65;;;11.40;99.90;;;;;;5037101;28;20032;-80
2021/10/16 02:25:11;;;;;;;13.63;8.00;;;11.40;99.90;;;;;;5025560;28;20397;-80
2021/10/16 02:27:37;;;;;;;12.93;7.93;;;11.30;99.90;;;;;;5049299;28;20036;-80
2021/10/16 02:30:03;;;;;;;14.80;8.52;;;11.30;99.90;;;;;;5034514;28;20064;-81
2021/10/16 02:32:29;;;;;;;14.55;7.78;;;11.30;99.90;;;;;;5033477;28;20021;-82
2021/10/16 02:34:54;;;;;;;12.38;7.82;;;11.30;99.90;;;;;;5049949;28;20041;-82
2021/10/16 02:37:20;;;;;;;13.43;8.07;;;11.30;99.90;;;;;;5050027;28;20022;-82
2021/10/16 02:39:45;;;;;;;13.15;7.80;;;11.20;99.90;;;;;;5049897;28;20021;-81
2021/10/16 02:42:11;;;;;;;15.20;8.35;;;11.20;99.90;;;;;;5050111;28;20244;-80
2021/10/16 02:44:37;;;;;;;18.77;8.70;;;11.20;99.90;;;;;;5049468;28;20026;-80
2021/10/16 02:47:03;;;;;;;13.25;7.65;;;11.20;99.90;;;;;;5030089;28;20124;-80
2021/10/16 02:49:28;;;;;;;13.30;7.95;;;11.10;99.90;;;;;;5029964;28;20057;-80
2021/10/16 02:51:54;;;;;;;12.75;7.45;;;11.10;99.90;;;;;;5041571;28;20021;-80
2021/10/16 02:54:20;;;;;;;14.90;8.07;;;11.10;99.90;;;;;;5049252;28;20437;-80
2021/10/16 02:56:45;;;;;;;11.95;7.72;;;11.00;99.90;;;;;;5017411;28;20076;-79
2021/10/16 02:59:11;;;;;;;16.73;8.57;;;11.00;99.90;;;;;;5013088;28;20459;-80
2021/10/16 03:01:37;;;;;;;13.50;8.27;;;11.00;99.90;;;;;;5014735;28;20022;-80
2021/10/16 03:04:02;;;;;;;15.48;8.32;;;11.00;99.90;;;;;;5013754;28;20022;-80
2021/10/16 03:06:28;;;;;;;15.40;7.88;;;10.90;99.90;;;;;;5040999;28;20084;-80
2021/10/16 03:08:54;;;;;;;14.32;8.43;;;10.90;99.90;;;;;;5013278;28;20033;-80
2021/10/16 03:11:19;;;;;;;16.02;9.25;;;10.90;99.90;;;;;;5013344;28;20065;-80
2021/10/16 03:13:45;;;;;;;14.18;8.18;;;10.90;99.90;;;;;;5013993;28;20473;-80
2021/10/16 03:16:11;;;;;;;16.80;8.63;;;10.90;99.90;;;;;;5015077;28;20064;-81
2021/10/16 03:18:36;;;;;;;15.20;8.77;;;10.90;99.90;;;;;;5013556;28;20399;-81
2021/10/16 03:21:02;;;;;;;18.05;8.90;;;10.90;99.90;;;;;;5033233;28;20044;-80
2021/10/16 03:23:28;;;;;;;14.05;8.23;;;10.90;99.90;;;;;;5032883;28;20087;-81
2021/10/16 03:25:54;;;;;;;13.75;8.52;;;10.90;99.90;;;;;;5044070;28;20037;-80
2021/10/16 03:28:19;;;;;;;14.82;8.27;;;10.90;99.90;;;;;;5049518;28;20037;-81
2021/10/16 03:30:45;;;;;;;16.27;8.77;;;10.90;99.90;;;;;;5024276;28;20471;-80
2021/10/16 03:33:11;;;;;;;16.10;9.07;;;10.80;99.90;;;;;;5014827;28;20026;-80
2021/10/16 03:35:37;;;;;;;17.13;9.25;;;10.80;99.90;;;;;;5012910;28;20034;-81
2021/10/16 03:38:04;;;;;;;15.50;9.38;;;10.80;99.90;;;;;;5027272;28;20079;-81
2021/10/16 03:40:29;;;;;;;15.95;8.73;;;10.80;99.90;;;;;;5013631;28;20467;-81
2021/10/16 03:42:55;;;;;;;16.15;9.60;;;10.90;99.90;;;;;;5014123;28;20026;-80
2021/10/16 03:45:20;;;;;;;17.63;10.20;;;10.90;99.90;;;;;;5027165;28;20041;-81
2021/10/16 03:47:47;;;;;;;20.95;10.00;;;10.90;99.90;;;;;;5033247;28;20022;-81
2021/10/16 03:50:13;;;;;;;25.02;10.65;;;10.80;99.90;;;;;;5032706;28;20053;-81
2021/10/16 03:52:39;;;;;;;21.40;10.95;;;10.80;99.90;;;;;;5029935;28;20029;-81
2021/10/16 03:55:06;;;;;;;19.65;10.35;;;10.80;99.90;;;;;;5031211;28;20076;-80
2021/10/16 03:57:31;;;;;;;23.52;11.27;;;10.70;99.90;;;;;;5012662;28;20026;-81
2021/10/16 03:59:57;;;;;;;24.90;11.32;;;10.80;99.90;;;;;;5017916;28;20029;-80
2021/10/16 04:02:25;;;;;;;23.63;11.10;;;10.70;99.90;;;;;;5032861;28;20033;-80
2021/10/16 04:04:51;;;;;;;21.92;10.63;;;10.70;99.90;;;;;;5020674;28;20024;-81
2021/10/16 04:07:17;;;;;;;21.70;10.73;;;10.70;99.90;;;;;;5032380;28;20025;-81
2021/10/16 04:09:42;;;;;;;25.95;11.35;;;10.70;99.90;;;;;;5027347;28;20046;-81
2021/10/16 04:12:08;;;;;;;22.77;11.38;;;10.60;99.90;;;;;;5032678;28;20073;-81
2021/10/16 04:14:34;;;;;;;25.70;12.13;;;10.60;99.90;;;;;;5016961;28;20026;-80
2021/10/16 04:17:00;;;;;;;27.60;12.88;;;10.60;99.90;;;;;;5032173;28;20042;-81
2021/10/16 04:19:25;;;;;;;29.67;12.52;;;10.60;99.90;;;;;;5035495;28;20056;-82
2021/10/16 04:21:51;;;;;;;28.52;12.15;;;10.60;99.90;;;;;;5028524;28;20390;-81
2021/10/16 04:24:17;;;;;;;25.17;11.82;;;10.60;99.90;;;;;;5021128;28;20057;-80
2021/10/16 04:26:42;;;;;;;25.33;12.00;;;10.60;99.90;;;;;;5029462;28;20069;-80
2021/10/16 04:29:08;;;;;;;26.63;12.23;;;10.60;99.90;;;;;;5024901;28;20124;-80
2021/10/16 04:31:34;;;;;;;23.85;11.75;;;10.60;99.90;;;;;;5035481;28;20430;-79
2021/10/16 04:34:01;;;;;;;25.58;12.15;;;10.50;99.90;;;;;;5030766;28;20036;-81
2021/10/16 04:36:26;;;;;;;24.30;12.32;;;10.50;99.90;;;;;;5044555;28;20512;-81
2021/10/16 04:38:52;;;;;;;27.88;12.70;;;10.50;99.90;;;;;;5016544;28;20022;-79
2021/10/16 04:41:18;;;;;;;23.52;12.15;;;10.50;99.90;;;;;;5024933;28;20026;-81
2021/10/16 04:43:44;;;;;;;28.75;12.18;;;10.50;99.90;;;;;;5034822;28;20032;-81
2021/10/16 04:46:11;;;;;;;25.90;12.02;;;10.50;99.90;;;;;;5034619;28;20049;-80
2021/10/16 04:48:41;;;;;;;25.70;11.35;;;10.40;99.90;;;;;;5035254;28;20036;-80
2021/10/16 04:51:07;;;;;;;26.83;11.95;;;10.40;99.90;;;;;;5033029;28;20049;-79
2021/10/16 04:53:33;;;;;;;26.65;11.90;;;10.40;99.90;;;;;;5019224;28;20034;-79
2021/10/16 04:55:59;;;;;;;23.95;11.32;;;10.40;99.90;;;;;;5023933;28;20065;-79
2021/10/16 04:58:24;;;;;;;23.73;11.07;;;10.40;99.90;;;;;;5015006;28;20398;-81
2021/10/16 05:00:50;;;;;;;22.98;11.73;;;10.40;99.90;;;;;;5019348;28;20105;-81
2021/10/16 05:03:16;;;;;;;23.70;11.63;;;10.40;99.90;;;;;;5034987;28;20032;-81
2021/10/16 05:05:41;;;;;;;23.98;11.75;;;10.40;99.90;;;;;;5033266;28;20037;-81
2021/10/16 05:08:07;;;;;;;22.17;11.23;;;10.40;99.90;;;;;;5029405;28;20033;-81
2021/10/16 05:10:34;;;;;;;23.38;12.18;;;10.40;99.90;;;;;;5016457;28;20033;-81
2021/10/16 05:12:59;;;;;;;25.23;11.23;;;10.40;99.90;;;;;;5023683;28;20178;-82
2021/10/16 05:15:25;;;;;;;21.75;11.18;;;10.40;99.90;;;;;;5022057;28;20121;-80
2021/10/16 05:17:51;;;;;;;25.58;11.05;;;10.40;99.90;;;;;;5015906;28;20030;-80
2021/10/16 05:20:17;;;;;;;23.92;11.38;;;10.30;99.90;;;;;;5016099;28;20042;-81
2021/10/16 05:22:42;;;;;;;25.55;11.70;;;10.30;99.90;;;;;;5015940;28;20026;-80
2021/10/16 05:25:10;;;;;;;25.92;11.90;;;10.30;99.90;;;;;;5013860;28;20116;-80
2021/10/16 05:27:37;;;;;;;25.63;12.43;;;10.30;99.90;;;;;;5014655;28;20033;-80
2021/10/16 05:30:02;;;;;;;25.52;12.05;;;10.30;99.90;;;;;;5015273;28;20030;-80
2021/10/16 05:32:28;;;;;;;26.42;12.43;;;10.30;99.90;;;;;;5014290;28;20121;-81
2021/10/16 05:34:54;;;;;;;27.50;12.07;;;10.30;99.90;;;;;;5013959;28;20054;-80
2021/10/16 05:37:19;;;;;;;24.42;12.10;;;10.30;99.90;;;;;;5014396;28;20026;-80
2021/10/16 05:39:45;;;;;;;25.10;12.25;;;10.30;99.90;;;;;;5032170;28;20030;-78
2021/10/16 05:42:11;;;;;;;26.50;12.07;;;10.30;99.90;;;;;;5014809;28;20060;-80
2021/10/16 05:44:36;;;;;;;24.83;11.50;;;10.30;99.90;;;;;;5017843;28;20030;-79
2021/10/16 05:47:02;;;;;;;24.70;12.20;;;10.30;99.90;;;;;;5014127;28;20035;-80
2021/10/16 05:49:28;;;;;;;27.05;12.63;;;10.30;99.90;;;;;;5014193;28;20076;-80
2021/10/16 05:51:53;;;;;;;26.67;12.15;;;10.30;99.90;;;;;;5014706;28;20022;-80
2021/10/16 05:54:19;;;;;;;27.58;12.02;;;10.20;99.90;;;;;;5014016;28;20030;-80
2021/10/16 05:56:44;;;;;;;24.38;12.00;;;10.20;99.90;;;;;;5014271;28;20033;-80
2021/10/16 05:59:10;;;;;;;26.13;12.07;;;10.20;99.90;;;;;;5013527;28;20261;-80
2021/10/16 06:01:36;;;;;;;26.80;12.50;;;10.20;99.90;;;;;;5014442;28;20057;-81
2021/10/16 06:04:02;;;;;;;26.52;12.10;;;10.30;99.90;;;;;;5013085;28;20030;-81
2021/10/16 06:06:27;;;;;;;27.00;11.35;;;10.30;99.90;;;;;;5013821;28;20091;-80
2021/10/16 06:08:53;;;;;;;27.02;12.43;;;10.30;99.90;;;;;;5014292;28;20106;-80
2021/10/16 06:11:18;;;;;;;28.90;12.43;;;10.30;99.90;;;;;;5020289;28;20478;-82
2021/10/16 06:13:44;;;;;;;29.17;12.13;;;10.30;99.90;;;;;;5020310;28;20057;-80
2021/10/16 06:16:10;;;;;;;28.00;12.60;;;10.30;99.90;;;;;;5013770;28;20091;-80
2021/10/16 06:18:35;;;;;;;29.20;11.98;;;10.30;99.90;;;;;;5029826;28;20026;-81
2021/10/16 06:21:03;;;;;;;29.73;12.10;;;10.30;99.90;;;;;;5039501;28;20029;-80
2021/10/16 06:23:29;;;;;;;27.48;12.07;;;10.30;99.90;;;;;;5014940;28;20036;-81
2021/10/16 06:25:54;;;;;;;26.33;12.15;;;10.30;99.90;;;;;;5028796;28;20109;-81
2021/10/16 06:28:20;;;;;;;32.13;11.77;;;10.30;99.90;;;;;;5030263;28;20105;-80
2021/10/16 06:30:46;;;;;;;26.95;11.25;;;10.30;99.90;;;;;;5029570;28;20466;-80
2021/10/16 06:33:12;;;;;;;24.70;10.48;;;10.30;99.90;;;;;;5012988;28;20037;-81
2021/10/16 06:35:38;;;;;;;30.75;11.32;;;10.40;99.90;;;;;;5047695;28;20486;-80
2021/10/16 06:38:04;;;;;;;28.67;11.15;;;10.40;99.90;;;;;;5033042;28;20107;-80
2021/10/16 06:40:30;;;;;;;27.88;11.65;;;10.40;99.90;;;;;;5033424;28;20072;-81
2021/10/16 06:42:59;;;;;;;29.50;11.88;;;10.40;99.90;;;;;;5033625;28;20394;-81
2021/10/16 06:45:25;;;;;;;27.02;10.90;;;10.40;99.90;;;;;;5032689;28;20159;-81
2021/10/16 06:47:51;;;;;;;31.77;11.77;;;10.50;99.90;;;;;;5034122;28;20025;-80
2021/10/16 06:50:16;;;;;;;30.20;11.30;;;10.40;99.90;;;;;;5032534;28;20104;-81
2021/10/16 06:52:42;;;;;;;28.77;11.98;;;10.40;99.90;;;;;;5013766;28;20471;-80
2021/10/16 06:55:08;;;;;;;26.33;11.13;;;10.50;99.90;;;;;;5011864;28;20057;-81
2021/10/16 06:57:33;;;;;;;31.30;11.55;;;10.50;99.90;;;;;;5013145;28;20026;-81
2021/10/16 06:59:59;;;;;;;27.60;11.05;;;10.50;99.90;;;;;;5012446;28;20026;-81
2021/10/16 07:02:25;;;;;;;28.48;10.70;;;10.50;99.90;;;;;;5013360;28;20030;-81
2021/10/16 07:04:53;;;;;;;27.17;11.13;;;10.50;99.90;;;;;;5012651;28;20145;-81
2021/10/16 07:07:19;;;;;;;33.40;11.98;;;10.50;99.90;;;;;;5012702;28;20026;-81
2021/10/16 07:09:45;;;;;;;30.08;11.48;;;10.50;99.90;;;;;;5012919;28;20029;-81
2021/10/16 07:12:10;;;;;;;32.35;12.55;;;10.50;99.90;;;;;;5013256;28;20057;-83
2021/10/16 07:14:36;;;;;;;30.70;12.23;;;10.50;99.90;;;;;;5028900;28;20459;-79
2021/10/16 07:17:02;;;;;;;29.70;11.80;;;10.50;99.90;;;;;;5027051;28;20034;-79
2021/10/16 07:19:28;;;;;;;33.35;12.43;;;10.50;99.90;;;;;;5028802;28;20033;-79
2021/10/16 07:21:53;;;;;;;32.10;12.95;;;10.50;99.90;;;;;;5012130;28;20026;-80
2021/10/16 07:24:19;;;;;;;31.92;12.63;;;10.60;99.90;;;;;;5028213;28;20386;-78
2021/10/16 07:26:45;;;;;;;35.05;12.63;;;10.60;99.90;;;;;;5029806;28;20075;-79
2021/10/16 07:29:11;;;;;;;34.95;12.50;;;10.60;99.90;;;;;;5027989;28;20030;-80
2021/10/16 07:31:37;;;;;;;29.00;11.65;;;10.60;99.90;;;;;;5013563;28;20030;-79
2021/10/16 07:34:03;;;;;;;35.80;12.45;;;10.50;99.90;;;;;;5011348;28;20032;-79
2021/10/16 07:36:38;;;;;;;34.67;12.93;;;10.50;99.90;;;;;;5013102;28;20503;-79
2021/10/16 07:39:06;;;;;;;31.92;11.80;;;10.60;99.90;;;;;;5031556;28;20045;-79
2021/10/16 07:41:32;;;;;;;35.22;13.00;;;10.60;99.90;;;;;;5017012;28;20045;-79
2021/10/16 07:43:58;;;;;;;31.55;11.95;;;10.60;99.90;;;;;;5015093;28;20077;-79
2021/10/16 07:46:24;;;;;;;34.70;12.52;;;10.60;99.90;;;;;;5050724;28;20037;-79
2021/10/16 07:48:50;;;;;;;35.67;13.05;;;10.70;99.90;;;;;;5036079;28;20037;-79
2021/10/16 07:51:15;;;;;;;33.70;12.55;;;10.70;99.90;;;;;;5029193;28;20509;-79
2021/10/16 07:53:41;;;;;;;39.50;13.20;;;10.60;99.90;;;;;;5016503;28;20026;-79
2021/10/16 07:56:07;;;;;;;28.17;11.70;;;10.60;99.90;;;;;;5029089;28;20053;-79
2021/10/16 07:58:33;;;;;;;29.15;11.75;;;10.60;99.90;;;;;;5035691;28;20049;-79
2021/10/16 08:00:58;;;;;;;25.88;11.68;;;10.60;99.90;;;;;;5012080;28;20069;-80
2021/10/16 08:03:24;;;;;;;29.48;11.77;;;10.60;99.90;;;;;;5016230;28;20521;-79
2021/10/16 08:05:50;;;;;;;28.77;11.82;;;10.60;99.90;;;;;;5033613;28;20101;-79
2021/10/16 08:08:15;;;;;;;27.95;11.65;;;10.50;99.90;;;;;;5031766;28;20655;-79
2021/10/16 08:10:42;;;;;;;28.45;11.05;;;10.50;99.90;;;;;;5017263;28;20382;-79
2021/10/16 08:13:07;;;;;;;29.58;11.13;;;10.50;99.90;;;;;;5031482;28;20071;-79
2021/10/16 08:15:34;;;;;;;27.27;11.55;;;10.50;99.90;;;;;;5040728;28;20121;-79
2021/10/16 08:18:00;;;;;;;26.73;11.70;;;10.50;99.90;;;;;;5020701;28;20041;-80
2021/10/16 08:20:26;;;;;;;25.83;10.65;;;10.50;99.90;;;;;;5015790;28;20111;-79
2021/10/16 08:22:52;;;;;;;28.23;11.45;;;10.60;99.90;;;;;;5015451;28;20033;-78
2021/10/16 08:25:18;;;;;;;28.05;12.05;;;10.60;99.90;;;;;;5015444;28;20674;-78
2021/10/16 08:27:46;;;;;;;31.90;12.90;;;10.60;99.90;;;;;;5031833;28;20038;-79
2021/10/16 08:30:12;;;;;;;24.38;10.25;;;10.70;99.90;;;;;;5031421;28;20390;-79
2021/10/16 08:32:39;;;;;;;24.55;10.43;;;10.60;99.90;;;;;;5031338;28;20036;-80
2021/10/16 08:35:06;;;;;;;31.33;11.75;;;10.70;99.90;;;;;;5011173;28;20018;-79
2021/10/16 08:37:31;;;;;;;23.90;10.63;;;10.80;99.90;;;;;;5031957;28;20045;-79
2021/10/16 08:39:57;;;;;;;27.65;11.23;;;10.90;99.90;;;;;;5031318;28;20387;-79
2021/10/16 08:42:23;;;;;;;27.38;11.57;;;10.90;99.90;;;;;;5031960;28;20041;-79
2021/10/16 08:44:48;;;;;;;27.80;11.20;;;10.90;99.90;;;;;;5031323;28;20026;-79
2021/10/16 08:47:17;;;;;;;22.08;10.35;;;11.00;99.90;;;;;;5030782;28;20022;-79
2021/10/16 08:49:44;;;;;;;23.48;9.98;;;11.10;99.90;;;;;;5031213;28;20608;-80
2021/10/16 08:52:10;;;;;;;28.50;11.07;;;11.10;99.90;;;;;;5030644;28;20133;-79
2021/10/16 08:54:39;;;;;;;24.35;10.85;;;11.10;99.90;;;;;;5031507;28;20104;-79
2021/10/16 08:57:05;;;;;;;25.17;9.77;;;11.10;99.90;;;;;;5037205;28;20034;-79
2021/10/16 08:59:31;;;;;;;27.35;9.93;;;11.10;99.80;;;;;;5024747;28;20116;-79
2021/10/16 09:02:05;;;;;;;25.30;10.95;;;11.20;99.80;;;;;;5024767;28;20540;-81
2021/10/16 09:04:32;;;;;;;25.20;10.75;;;11.20;99.80;;;;;;5015356;28;20060;-79
2021/10/16 09:06:58;;;;;;;22.63;9.68;;;11.20;99.90;;;;;;5013296;28;20068;-82
2021/10/16 09:09:31;;;;;;;24.20;10.38;;;11.30;99.90;;;;;;5014196;28;20026;-79
2021/10/16 09:11:57;;;;;;;27.65;11.25;;;11.30;99.90;;;;;;5030035;28;20030;-79
2021/10/16 09:14:25;;;;;;;28.25;10.95;;;11.40;99.80;;;;;;5032364;28;20466;-79
2021/10/16 09:16:55;;;;;;;23.40;10.10;;;11.40;99.70;;;;;;5016397;28;20084;-79
2021/10/16 09:19:30;;;;;;;23.27;10.90;;;11.40;99.40;;;;;;5017460;28;20048;-79
2021/10/16 09:22:03;;;;;;;27.58;9.88;;;11.40;99.40;;;;;;5013190;28;20096;-79
2021/10/16 09:24:29;;;;;;;23.73;10.45;;;11.40;99.20;;;;;;5014681;28;20522;-80
2021/10/16 09:26:57;;;;;;;27.42;11.80;;;11.40;99.20;;;;;;5014965;28;20037;-79
2021/10/16 09:29:28;;;;;;;23.65;10.43;;;11.40;99.20;;;;;;5016146;28;20087;-79
2021/10/16 09:32:02;;;;;;;28.27;11.38;;;11.40;99.40;;;;;;5031282;28;20037;-79
2021/10/16 09:34:33;;;;;;;25.58;10.57;;;11.50;99.40;;;;;;5015751;28;20202;-80
2021/10/16 09:37:11;;;;;;;22.60;10.73;;;11.50;99.30;;;;;;5015283;28;20518;-83
2021/10/16 09:39:47;;;;;;;25.38;11.50;;;11.50;99.10;;;;;;5030774;28;20120;-79
2021/10/16 09:42:15;;;;;;;22.05;10.88;;;11.50;99.30;;;;;;5030554;28;20029;-79
2021/10/16 09:44:43;;;;;;;24.33;10.48;;;11.60;99.30;;;;;;5031080;28;20056;-79
2021/10/16 09:47:12;;;;;;;24.70;10.45;;;11.60;99.10;;;;;;5015267;28;20040;-80
2021/10/16 09:49:43;;;;;;;23.33;10.15;;;11.70;99.00;;;;;;5029282;28;20026;-79
2021/10/16 09:52:11;;;;;;;21.80;10.25;;;11.80;99.20;;;;;;5029324;28;20057;-80
2021/10/16 09:54:38;;;;;;;20.05;10.35;;;11.80;98.90;;;;;;5029063;28;20054;-80
2021/10/16 09:57:09;;;;;;;21.00;10.05;;;11.70;98.90;;;;;;5024852;28;20029;-79
2021/10/16 09:59:39;;;;;;;25.45;11.10;;;11.80;98.90;;;;;;5029061;28;20037;-80
2021/10/16 10:02:06;;;;;;;24.02;11.60;;;11.90;98.70;;;;;;5028032;28;20149;-78
2021/10/16 10:04:42;;;;;;;22.88;10.65;;;11.90;98.30;;;;;;5028898;28;20034;-81
2021/10/16 10:07:09;;;;;;;23.83;10.57;;;11.90;98.30;;;;;;5028351;28;20025;-79
2021/10/16 10:09:38;;;;;;;22.10;10.68;;;12.00;98.40;;;;;;5014691;28;20550;-79
2021/10/16 10:12:05;;;;;;;25.20;11.32;;;12.00;98.30;;;;;;5029597;28;20030;-79
2021/10/16 10:14:31;;;;;;;23.42;10.35;;;12.00;98.30;;;;;;5030607;28;20033;-79
2021/10/16 10:17:00;;;;;;;24.55;11.32;;;12.10;98.20;;;;;;5033878;28;20034;-79
2021/10/16 10:19:27;;;;;;;21.25;11.20;;;12.10;97.90;;;;;;5016851;28;20125;-79
2021/10/16 10:21:53;;;;;;;23.08;10.77;;;12.10;97.90;;;;;;5014710;28;20017;-79
2021/10/16 10:24:18;;;;;;;20.80;10.52;;;12.00;97.90;;;;;;5014361;28;20098;-79
2021/10/16 10:26:46;;;;;;;22.88;9.75;;;12.00;98.10;;;;;;5032488;28;20036;-79
2021/10/16 10:29:20;;;;;;;24.20;10.13;;;12.00;98.00;;;;;;5024972;28;20101;-79
2021/10/16 10:31:46;;;;;;;22.52;10.02;;;11.90;98.10;;;;;;5035813;28;20117;-80
2021/10/16 10:34:13;;;;;;;23.10;10.13;;;12.00;98.20;;;;;;5031911;28;20124;-79
2021/10/16 10:36:54;;;;;;;23.00;11.20;;;12.00;98.20;;;;;;5030125;28;20033;-79
2021/10/16 10:39:33;;;;;;;22.77;10.57;;;11.90;97.90;;;;;;5012744;28;20033;-78
2021/10/16 10:42:13;;;;;;;24.63;10.48;;;12.00;98.00;;;;;;5029682;28;20030;-79
2021/10/16 10:44:46;;;;;;;22.77;10.50;;;12.00;98.10;;;;;;5013078;28;20467;-79
2021/10/16 10:47:36;;;;;;;26.20;10.80;;;12.00;97.90;;;;;;5014299;28;20121;-78
2021/10/16 10:50:10;;;;;;;19.80;10.32;;;12.00;97.70;;;;;;4993744;28;20026;-78
2021/10/16 10:53:03;;;;;;;22.35;10.77;;;12.00;97.90;;;;;;5010034;28;20116;-78
2021/10/16 10:55:29;;;;;;;21.70;10.82;;;12.00;98.00;;;;;;5016831;28;20097;-80
2021/10/16 10:57:59;;;;;;;21.70;10.38;;;12.10;98.00;;;;;;5029781;28;20573;-79
2021/10/16 11:00:29;;;;;;;21.73;10.55;;;12.00;97.80;;;;;;5028598;28;20022;-79
2021/10/16 11:02:54;;;;;;;24.30;10.32;;;12.10;97.90;;;;;;5012652;28;20028;-79
2021/10/16 11:05:34;;;;;;;20.10;10.38;;;12.10;97.70;;;;;;5012125;28;20026;-79
2021/10/16 11:08:15;;;;;;;21.35;10.32;;;12.10;97.90;;;;;;5012627;28;20026;-80
2021/10/16 11:10:42;;;;;;;26.85;10.85;;;12.20;98.00;;;;;;5023870;28;20041;-79
2021/10/16 11:13:19;;;;;;;21.58;10.55;;;12.30;97.70;;;;;;5016060;28;20108;-79
2021/10/16 11:15:56;;;;;;;22.25;10.40;;;12.40;97.50;;;;;;5020364;28;20034;-80
2021/10/16 11:18:21;;;;;;;22.33;10.52;;;12.40;97.20;;;;;;4998033;28;20065;-79
2021/10/16 11:20:47;;;;;;;22.80;10.48;;;12.30;97.30;;;;;;5015107;28;20026;-80
2021/10/16 11:23:18;;;;;;;24.08;11.40;;;12.40;97.40;;;;;;5032586;28;20057;-80
2021/10/16 11:26:10;;;;;;;20.67;10.63;;;12.40;97.50;;;;;;5016988;28;20069;-80
2021/10/16 11:28:38;;;;;;;23.83;11.65;;;12.50;97.40;;;;;;5032834;28;20026;-80
2021/10/16 11:31:05;;;;;;;22.00;10.38;;;12.50;96.90;;;;;;5032610;28;20037;-80
2021/10/16 11:33:36;;;;;;;26.75;11.70;;;12.50;96.80;;;;;;5017141;28;20108;-80
2021/10/16 11:36:02;;;;;;;24.33;10.63;;;12.40;96.70;;;;;;5032827;28;20525;-80
2021/10/16 11:38:34;;;;;;;23.33;10.23;;;12.50;96.80;;;;;;5032283;28;20023;-80
2021/10/16 11:41:01;;;;;;;24.50;10.52;;;12.60;96.90;;;;;;5032774;28;20034;-80
2021/10/16 11:43:36;;;;;;;25.25;11.70;;;12.60;97.00;;;;;;5014961;28;20026;-79
2021/10/16 11:46:04;;;;;;;25.65;10.48;;;12.60;96.70;;;;;;5032029;28;20030;-78
2021/10/16 11:48:30;;;;;;;23.10;10.90;;;12.70;96.50;;;;;;5036983;28;20030;-80
2021/10/16 11:50:58;;;;;;;23.38;11.65;;;12.70;96.40;;;;;;5025661;28;20072;-80
2021/10/16 11:53:29;;;;;;;26.90;12.63;;;12.70;96.30;;;;;;5026235;28;20167;-81
2021/10/16 11:56:12;;;;;;;24.10;11.43;;;12.80;96.20;;;;;;5016290;28;20045;-81
2021/10/16 11:58:38;;;;;;;23.58;10.55;;;12.80;96.00;;;;;;5030520;28;20062;-81
2021/10/16 12:01:06;;;;;;;24.02;11.02;;;12.80;96.30;;;;;;5032270;28;20036;-80
2021/10/16 12:03:43;;;;;;;23.13;11.07;;;12.80;96.30;;;;;;5015972;28;20025;-79
2021/10/16 12:06:17;;;;;;;24.30;10.80;;;12.70;96.10;;;;;;5016445;28;20030;-80
2021/10/16 12:09:00;;;;;;;23.10;10.48;;;12.80;96.40;;;;;;5032170;28;20041;-79
2021/10/16 12:11:27;;;;;;;;;;;12.90;96.30;;;;;;4997280;28;20188;-80
2021/10/16 12:14:09;;;;;;;20.67;10.48;;;12.90;95.90;;;;;;4996007;28;19932;-81
2021/10/16 12:16:37;;;;;;;20.85;10.95;;;13.00;95.90;;;;;;5014043;28;20049;-80
2021/10/16 12:19:16;;;;;;;21.83;11.38;;;13.00;95.60;;;;;;5016492;28;20120;-80
2021/10/16 12:21:51;;;;;;;20.48;10.57;;;13.00;95.50;;;;;;5035793;28;20022;-80
2021/10/16 12:24:16;;;;;;;24.02;11.07;;;12.90;95.60;;;;;;5023082;28;20029;-81
2021/10/16 12:26:44;;;;;;;22.52;10.63;;;13.00;95.90;;;;;;5016314;28;20037;-80
2021/10/16 12:29:29;;;;;;;18.90;10.00;;;13.10;95.70;;;;;;5015541;28;20092;-80
2021/10/16 12:31:55;;;;;;;23.58;10.27;;;13.10;95.60;;;;;;5013897;28;20029;-80